sensor_id;sensor_type;location;lat;lon;timestamp;P1;durP1;ratioP1;P2;durP2;ratioP2
27572;SDS011;15009;53.082;8.768;2022-07-10T00:02:00;8.90;;;2.22;;
27572;SDS011;15009;53.082;8.768;2022-07-10T00:05:01;11.02;;;1.85;;
27572;SDS011;15009;53.082;8.768;2022-07-10T00:08:02;10.60;;;2.00;;
27572;SDS011;15009;53.082;8.768;2022-07-10T00:11:03;9.05;;;1.88;;
27572;SDS011;15009;53.082;8.768;2022-07-10T00:14:04;9.30;;;2.08;;
27572;SDS011;15009;53.082;8.768;2022-07-10T00:17:05;11.55;;;2.33;;
27572;SDS011;15009;53.082;8.768;2022-07-10T00:20:06;9.77;;;2.05;;
27572;SDS011;15009;53.082;8.768;2022-07-10T00:23:07;11.38;;;2.22;;
27572;SDS011;15009;53.082;8.768;2022-07-10T00:26:08;12.68;;;2.50;;
27572;SDS011;15009;53.082;8.768;2022-07-10T00:29:09;11.80;;;1.95;;
27572;SDS011;15009;53.082;8.768;2022-07-10T00:32:10;7.45;;;1.83;;
27572;SDS011;15009;53.082;8.768;2022-07-10T00:35:10;9.77;;;1.98;;
27572;SDS011;15009;53.082;8.768;2022-07-10T00:38:11;7.78;;;2.13;;
27572;SDS011;15009;53.082;8.768;2022-07-10T00:41:12;6.25;;;2.05;;
27572;SDS011;15009;53.082;8.768;2022-07-10T00:44:12;7.25;;;1.48;;
27572;SDS011;15009;53.082;8.768;2022-07-10T00:47:13;5.03;;;1.80;;
27572;SDS011;15009;53.082;8.768;2022-07-10T00:50:17;6.75;;;1.45;;
27572;SDS011;15009;53.082;8.768;2022-07-10T00:53:18;7.20;;;1.60;;
27572;SDS011;15009;53.082;8.768;2022-07-10T00:56:19;7.82;;;1.70;;
27572;SDS011;15009;53.082;8.768;2022-07-10T00:59:22;7.28;;;1.90;;
27572;SDS011;15009;53.082;8.768;2022-07-10T01:02:24;7.28;;;1.90;;
27572;SDS011;15009;53.082;8.768;2022-07-10T01:05:24;4.32;;;1.20;;
27572;SDS011;15009;53.082;8.768;2022-07-10T01:08:25;5.60;;;1.50;;
27572;SDS011;15009;53.082;8.768;2022-07-10T01:11:27;9.35;;;2.22;;
27572;SDS011;15009;53.082;8.768;2022-07-10T01:14:28;8.48;;;1.63;;
27572;SDS011;15009;53.082;8.768;2022-07-10T01:17:30;6.20;;;1.90;;
27572;SDS011;15009;53.082;8.768;2022-07-10T01:20:31;6.47;;;1.63;;
27572;SDS011;15009;53.082;8.768;2022-07-10T01:23:32;10.35;;;1.90;;
27572;SDS011;15009;53.082;8.768;2022-07-10T01:26:33;10.38;;;2.05;;
27572;SDS011;15009;53.082;8.768;2022-07-10T01:29:35;4.57;;;1.52;;
27572;SDS011;15009;53.082;8.768;2022-07-10T01:32:37;8.60;;;2.03;;
27572;SDS011;15009;53.082;8.768;2022-07-10T01:35:40;12.93;;;1.83;;
27572;SDS011;15009;53.082;8.768;2022-07-10T01:38:41;6.65;;;1.50;;
27572;SDS011;15009;53.082;8.768;2022-07-10T01:41:43;4.67;;;1.50;;
27572;SDS011;15009;53.082;8.768;2022-07-10T01:44:43;6.97;;;1.45;;
27572;SDS011;15009;53.082;8.768;2022-07-10T01:47:44;4.75;;;1.58;;
27572;SDS011;15009;53.082;8.768;2022-07-10T01:50:45;10.45;;;1.95;;
27572;SDS011;15009;53.082;8.768;2022-07-10T01:53:46;11.88;;;1.80;;
27572;SDS011;15009;53.082;8.768;2022-07-10T01:56:46;10.00;;;1.90;;
27572;SDS011;15009;53.082;8.768;2022-07-10T01:59:47;8.15;;;1.65;;
27572;SDS011;15009;53.082;8.768;2022-07-10T02:02:48;9.40;;;1.95;;
27572;SDS011;15009;53.082;8.768;2022-07-10T02:06:08;6.80;;;1.50;;
27572;SDS011;15009;53.082;8.768;2022-07-10T02:09:09;8.80;;;2.08;;
27572;SDS011;15009;53.082;8.768;2022-07-10T02:12:10;10.60;;;1.83;;
27572;SDS011;15009;53.082;8.768;2022-07-10T02:15:12;10.75;;;2.08;;
27572;SDS011;15009;53.082;8.768;2022-07-10T02:18:13;8.63;;;1.50;;
27572;SDS011;15009;53.082;8.768;2022-07-10T02:21:14;10.85;;;1.90;;
27572;SDS011;15009;53.082;8.768;2022-07-10T02:24:15;11.80;;;2.20;;
27572;SDS011;15009;53.082;8.768;2022-07-10T02:27:15;7.63;;;2.08;;
27572;SDS011;15009;53.082;8.768;2022-07-10T02:30:16;10.77;;;2.30;;
27572;SDS011;15009;53.082;8.768;2022-07-10T02:33:16;5.65;;;1.65;;
27572;SDS011;15009;53.082;8.768;2022-07-10T02:36:17;9.77;;;2.05;;
27572;SDS011;15009;53.082;8.768;2022-07-10T02:39:17;6.57;;;1.80;;
27572;SDS011;15009;53.082;8.768;2022-07-10T02:42:19;11.60;;;1.83;;
27572;SDS011;15009;53.082;8.768;2022-07-10T02:45:19;12.90;;;1.90;;
27572;SDS011;15009;53.082;8.768;2022-07-10T02:48:20;7.18;;;1.98;;
27572;SDS011;15009;53.082;8.768;2022-07-10T02:51:20;9.02;;;2.30;;
27572;SDS011;15009;53.082;8.768;2022-07-10T02:54:21;10.77;;;2.15;;
27572;SDS011;15009;53.082;8.768;2022-07-10T02:57:22;12.73;;;2.10;;
27572;SDS011;15009;53.082;8.768;2022-07-10T03:00:22;9.02;;;2.10;;
27572;SDS011;15009;53.082;8.768;2022-07-10T03:03:23;10.27;;;2.03;;
27572;SDS011;15009;53.082;8.768;2022-07-10T03:06:24;13.02;;;2.30;;
27572;SDS011;15009;53.082;8.768;2022-07-10T03:09:24;11.55;;;1.85;;
27572;SDS011;15009;53.082;8.768;2022-07-10T03:12:25;9.50;;;1.88;;
27572;SDS011;15009;53.082;8.768;2022-07-10T03:15:25;8.50;;;2.28;;
27572;SDS011;15009;53.082;8.768;2022-07-10T03:18:26;8.75;;;2.25;;
27572;SDS011;15009;53.082;8.768;2022-07-10T03:21:26;10.10;;;2.10;;
27572;SDS011;15009;53.082;8.768;2022-07-10T03:24:27;9.95;;;2.20;;
27572;SDS011;15009;53.082;8.768;2022-07-10T03:27:28;12.65;;;2.40;;
27572;SDS011;15009;53.082;8.768;2022-07-10T03:30:28;8.75;;;2.20;;
27572;SDS011;15009;53.082;8.768;2022-07-10T03:33:29;11.75;;;2.38;;
27572;SDS011;15009;53.082;8.768;2022-07-10T03:36:30;11.57;;;2.35;;
27572;SDS011;15009;53.082;8.768;2022-07-10T03:39:30;14.23;;;2.10;;
27572;SDS011;15009;53.082;8.768;2022-07-10T03:42:31;11.35;;;2.22;;
27572;SDS011;15009;53.082;8.768;2022-07-10T03:45:31;10.68;;;1.90;;
27572;SDS011;15009;53.082;8.768;2022-07-10T03:48:32;7.05;;;1.65;;
27572;SDS011;15009;53.082;8.768;2022-07-10T03:51:33;7.95;;;2.45;;
27572;SDS011;15009;53.082;8.768;2022-07-10T03:54:34;10.05;;;2.47;;
27572;SDS011;15009;53.082;8.768;2022-07-10T03:57:34;12.75;;;2.72;;
27572;SDS011;15009;53.082;8.768;2022-07-10T04:00:53;9.70;;;1.90;;
27572;SDS011;15009;53.082;8.768;2022-07-10T04:03:54;10.95;;;2.38;;
27572;SDS011;15009;53.082;8.768;2022-07-10T04:06:55;9.82;;;2.42;;
27572;SDS011;15009;53.082;8.768;2022-07-10T04:09:55;7.40;;;2.05;;
27572;SDS011;15009;53.082;8.768;2022-07-10T04:12:56;10.05;;;2.10;;
27572;SDS011;15009;53.082;8.768;2022-07-10T04:15:57;6.85;;;1.80;;
27572;SDS011;15009;53.082;8.768;2022-07-10T04:18:57;9.98;;;2.22;;
27572;SDS011;15009;53.082;8.768;2022-07-10T04:21:58;9.98;;;2.13;;
27572;SDS011;15009;53.082;8.768;2022-07-10T04:24:58;7.53;;;1.92;;
27572;SDS011;15009;53.082;8.768;2022-07-10T04:27:59;10.40;;;2.28;;
27572;SDS011;15009;53.082;8.768;2022-07-10T04:30:59;6.82;;;2.05;;
27572;SDS011;15009;53.082;8.768;2022-07-10T04:34:00;11.05;;;2.20;;
27572;SDS011;15009;53.082;8.768;2022-07-10T04:37:01;12.82;;;2.67;;
27572;SDS011;15009;53.082;8.768;2022-07-10T04:40:02;18.48;;;2.55;;
27572;SDS011;15009;53.082;8.768;2022-07-10T04:43:02;13.77;;;2.63;;
27572;SDS011;15009;53.082;8.768;2022-07-10T04:46:03;11.82;;;2.38;;
27572;SDS011;15009;53.082;8.768;2022-07-10T04:49:04;7.07;;;2.17;;
27572;SDS011;15009;53.082;8.768;2022-07-10T04:52:04;6.85;;;2.42;;
27572;SDS011;15009;53.082;8.768;2022-07-10T04:55:06;8.70;;;2.33;;
27572;SDS011;15009;53.082;8.768;2022-07-10T04:58:07;8.55;;;2.20;;
27572;SDS011;15009;53.082;8.768;2022-07-10T05:01:07;7.40;;;2.35;;
27572;SDS011;15009;53.082;8.768;2022-07-10T05:04:08;10.27;;;2.97;;
27572;SDS011;15009;53.082;8.768;2022-07-10T05:07:08;9.60;;;2.43;;
27572;SDS011;15009;53.082;8.768;2022-07-10T05:10:09;8.88;;;1.95;;
27572;SDS011;15009;53.082;8.768;2022-07-10T05:13:10;9.45;;;2.42;;
27572;SDS011;15009;53.082;8.768;2022-07-10T05:16:11;8.13;;;2.03;;
27572;SDS011;15009;53.082;8.768;2022-07-10T05:19:15;10.52;;;2.20;;
27572;SDS011;15009;53.082;8.768;2022-07-10T05:22:16;9.20;;;2.03;;
27572;SDS011;15009;53.082;8.768;2022-07-10T05:25:16;12.60;;;2.67;;
27572;SDS011;15009;53.082;8.768;2022-07-10T05:28:17;9.32;;;2.53;;
27572;SDS011;15009;53.082;8.768;2022-07-10T05:31:17;12.98;;;2.90;;
27572;SDS011;15009;53.082;8.768;2022-07-10T05:34:18;14.60;;;2.53;;
27572;SDS011;15009;53.082;8.768;2022-07-10T05:37:19;11.80;;;2.42;;
27572;SDS011;15009;53.082;8.768;2022-07-10T05:40:19;13.90;;;2.60;;
27572;SDS011;15009;53.082;8.768;2022-07-10T05:43:20;7.90;;;1.90;;
27572;SDS011;15009;53.082;8.768;2022-07-10T05:46:21;11.80;;;2.30;;
27572;SDS011;15009;53.082;8.768;2022-07-10T05:49:21;10.27;;;2.20;;
27572;SDS011;15009;53.082;8.768;2022-07-10T05:52:22;12.15;;;2.58;;
27572;SDS011;15009;53.082;8.768;2022-07-10T05:55:22;9.13;;;2.47;;
27572;SDS011;15009;53.082;8.768;2022-07-10T05:58:23;10.98;;;2.33;;
27572;SDS011;15009;53.082;8.768;2022-07-10T06:01:24;9.98;;;1.98;;
27572;SDS011;15009;53.082;8.768;2022-07-10T06:04:26;10.65;;;2.17;;
27572;SDS011;15009;53.082;8.768;2022-07-10T06:07:26;13.32;;;2.80;;
27572;SDS011;15009;53.082;8.768;2022-07-10T06:10:27;10.38;;;2.47;;
27572;SDS011;15009;53.082;8.768;2022-07-10T06:13:28;11.65;;;2.67;;
27572;SDS011;15009;53.082;8.768;2022-07-10T06:16:28;9.23;;;2.88;;
27572;SDS011;15009;53.082;8.768;2022-07-10T06:19:29;9.05;;;3.25;;
27572;SDS011;15009;53.082;8.768;2022-07-10T06:22:30;8.97;;;2.90;;
27572;SDS011;15009;53.082;8.768;2022-07-10T06:25:30;7.70;;;2.80;;
27572;SDS011;15009;53.082;8.768;2022-07-10T06:28:33;9.33;;;2.70;;
27572;SDS011;15009;53.082;8.768;2022-07-10T06:31:34;11.40;;;2.78;;
27572;SDS011;15009;53.082;8.768;2022-07-10T06:34:35;9.37;;;2.43;;
27572;SDS011;15009;53.082;8.768;2022-07-10T06:37:36;7.80;;;2.50;;
27572;SDS011;15009;53.082;8.768;2022-07-10T06:40:37;8.37;;;2.13;;
27572;SDS011;15009;53.082;8.768;2022-07-10T06:43:38;10.77;;;2.97;;
27572;SDS011;15009;53.082;8.768;2022-07-10T06:46:38;8.70;;;2.42;;
27572;SDS011;15009;53.082;8.768;2022-07-10T06:49:40;11.32;;;2.72;;
27572;SDS011;15009;53.082;8.768;2022-07-10T06:52:40;14.07;;;2.72;;
27572;SDS011;15009;53.082;8.768;2022-07-10T06:55:41;17.25;;;3.17;;
27572;SDS011;15009;53.082;8.768;2022-07-10T06:58:42;12.25;;;2.83;;
27572;SDS011;15009;53.082;8.768;2022-07-10T07:01:43;20.58;;;3.08;;
27572;SDS011;15009;53.082;8.768;2022-07-10T07:04:44;16.27;;;2.97;;
27572;SDS011;15009;53.082;8.768;2022-07-10T07:07:46;10.32;;;2.55;;
27572;SDS011;15009;53.082;8.768;2022-07-10T07:10:46;16.98;;;3.35;;
27572;SDS011;15009;53.082;8.768;2022-07-10T07:13:47;11.20;;;2.42;;
27572;SDS011;15009;53.082;8.768;2022-07-10T07:16:48;12.85;;;2.78;;
27572;SDS011;15009;53.082;8.768;2022-07-10T07:19:58;16.77;;;3.42;;
27572;SDS011;15009;53.082;8.768;2022-07-10T07:23:18;12.32;;;2.97;;
27572;SDS011;15009;53.082;8.768;2022-07-10T07:26:19;19.67;;;3.50;;
27572;SDS011;15009;53.082;8.768;2022-07-10T07:29:20;15.77;;;3.17;;
27572;SDS011;15009;53.082;8.768;2022-07-10T07:32:20;16.13;;;3.78;;
27572;SDS011;15009;53.082;8.768;2022-07-10T07:35:21;10.40;;;3.00;;
27572;SDS011;15009;53.082;8.768;2022-07-10T07:38:21;16.35;;;3.60;;
27572;SDS011;15009;53.082;8.768;2022-07-10T07:41:22;11.52;;;2.78;;
27572;SDS011;15009;53.082;8.768;2022-07-10T07:44:23;11.88;;;2.97;;
27572;SDS011;15009;53.082;8.768;2022-07-10T07:47:23;14.02;;;2.85;;
27572;SDS011;15009;53.082;8.768;2022-07-10T07:50:25;11.07;;;3.25;;
27572;SDS011;15009;53.082;8.768;2022-07-10T07:53:28;9.65;;;2.78;;
27572;SDS011;15009;53.082;8.768;2022-07-10T07:56:29;15.90;;;2.80;;
27572;SDS011;15009;53.082;8.768;2022-07-10T07:59:29;12.27;;;3.08;;
27572;SDS011;15009;53.082;8.768;2022-07-10T08:02:30;17.52;;;3.17;;
27572;SDS011;15009;53.082;8.768;2022-07-10T08:05:30;13.70;;;3.17;;
27572;SDS011;15009;53.082;8.768;2022-07-10T08:08:34;18.08;;;3.25;;
27572;SDS011;15009;53.082;8.768;2022-07-10T08:11:34;14.90;;;2.92;;
27572;SDS011;15009;53.082;8.768;2022-07-10T08:14:35;11.90;;;3.15;;
27572;SDS011;15009;53.082;8.768;2022-07-10T08:17:36;13.55;;;3.53;;
27572;SDS011;15009;53.082;8.768;2022-07-10T08:20:37;7.93;;;2.67;;
27572;SDS011;15009;53.082;8.768;2022-07-10T08:23:38;16.80;;;3.13;;
27572;SDS011;15009;53.082;8.768;2022-07-10T08:26:38;14.93;;;4.00;;
27572;SDS011;15009;53.082;8.768;2022-07-10T08:29:39;18.10;;;3.78;;
27572;SDS011;15009;53.082;8.768;2022-07-10T08:32:39;9.57;;;2.38;;
27572;SDS011;15009;53.082;8.768;2022-07-10T08:35:40;10.38;;;2.47;;
27572;SDS011;15009;53.082;8.768;2022-07-10T08:38:41;9.77;;;2.58;;
27572;SDS011;15009;53.082;8.768;2022-07-10T08:41:42;12.98;;;2.55;;
27572;SDS011;15009;53.082;8.768;2022-07-10T08:44:43;9.93;;;2.60;;
27572;SDS011;15009;53.082;8.768;2022-07-10T08:47:43;9.70;;;2.90;;
27572;SDS011;15009;53.082;8.768;2022-07-10T08:50:45;16.50;;;3.03;;
27572;SDS011;15009;53.082;8.768;2022-07-10T08:53:48;11.35;;;2.42;;
27572;SDS011;15009;53.082;8.768;2022-07-10T08:56:51;11.18;;;2.97;;
27572;SDS011;15009;53.082;8.768;2022-07-10T08:59:52;10.55;;;2.40;;
27572;SDS011;15009;53.082;8.768;2022-07-10T09:02:54;11.87;;;2.90;;
27572;SDS011;15009;53.082;8.768;2022-07-10T09:05:55;11.87;;;3.07;;
27572;SDS011;15009;53.082;8.768;2022-07-10T09:08:57;13.00;;;3.40;;
27572;SDS011;15009;53.082;8.768;2022-07-10T09:12:05;7.32;;;2.28;;
27572;SDS011;15009;53.082;8.768;2022-07-10T09:15:16;8.82;;;2.28;;
27572;SDS011;15009;53.082;8.768;2022-07-10T09:18:18;13.32;;;2.53;;
27572;SDS011;15009;53.082;8.768;2022-07-10T09:21:23;16.05;;;3.45;;
27572;SDS011;15009;53.082;8.768;2022-07-10T09:24:24;11.68;;;3.30;;
27572;SDS011;15009;53.082;8.768;2022-07-10T09:27:24;11.48;;;2.80;;
27572;SDS011;15009;53.082;8.768;2022-07-10T09:30:38;9.57;;;2.67;;
27572;SDS011;15009;53.082;8.768;2022-07-10T09:33:39;8.68;;;2.17;;
27572;SDS011;15009;53.082;8.768;2022-07-10T09:36:40;16.48;;;2.70;;
27572;SDS011;15009;53.082;8.768;2022-07-10T09:39:49;11.35;;;3.00;;
27572;SDS011;15009;53.082;8.768;2022-07-10T09:46:06;7.30;;;2.33;;
27572;SDS011;15009;53.082;8.768;2022-07-10T09:49:12;9.85;;;2.33;;
27572;SDS011;15009;53.082;8.768;2022-07-10T09:52:14;9.05;;;2.40;;
27572;SDS011;15009;53.082;8.768;2022-07-10T09:55:18;9.15;;;2.33;;
27572;SDS011;15009;53.082;8.768;2022-07-10T09:58:20;11.73;;;2.35;;
27572;SDS011;15009;53.082;8.768;2022-07-10T10:01:25;9.07;;;2.90;;
27572;SDS011;15009;53.082;8.768;2022-07-10T10:04:28;7.72;;;2.25;;
27572;SDS011;15009;53.082;8.768;2022-07-10T10:07:31;9.32;;;2.53;;
27572;SDS011;15009;53.082;8.768;2022-07-10T10:10:35;11.10;;;2.63;;
27572;SDS011;15009;53.082;8.768;2022-07-10T10:16:38;8.30;;;2.30;;
27572;SDS011;15009;53.082;8.768;2022-07-10T10:19:39;8.00;;;1.97;;
27572;SDS011;15009;53.082;8.768;2022-07-10T10:22:59;10.68;;;2.53;;
27572;SDS011;15009;53.082;8.768;2022-07-10T10:26:01;11.57;;;2.42;;
27572;SDS011;15009;53.082;8.768;2022-07-10T10:29:02;9.70;;;2.22;;
27572;SDS011;15009;53.082;8.768;2022-07-10T10:32:04;10.95;;;2.60;;
27572;SDS011;15009;53.082;8.768;2022-07-10T10:35:07;11.07;;;2.85;;
27572;SDS011;15009;53.082;8.768;2022-07-10T10:38:10;13.00;;;2.60;;
27572;SDS011;15009;53.082;8.768;2022-07-10T10:41:30;10.75;;;2.55;;
27572;SDS011;15009;53.082;8.768;2022-07-10T10:44:38;10.68;;;2.33;;
27572;SDS011;15009;53.082;8.768;2022-07-10T10:50:58;10.20;;;2.53;;
27572;SDS011;15009;53.082;8.768;2022-07-10T10:54:05;9.70;;;2.83;;
27572;SDS011;15009;53.082;8.768;2022-07-10T10:57:15;9.68;;;2.40;;
27572;SDS011;15009;53.082;8.768;2022-07-10T11:00:31;9.57;;;2.70;;
27572;SDS011;15009;53.082;8.768;2022-07-10T11:03:37;12.45;;;2.60;;
27572;SDS011;15009;53.082;8.768;2022-07-10T11:06:41;9.73;;;2.65;;
27572;SDS011;15009;53.082;8.768;2022-07-10T11:09:49;8.98;;;2.53;;
27572;SDS011;15009;53.082;8.768;2022-07-10T11:13:11;11.70;;;2.50;;
27572;SDS011;15009;53.082;8.768;2022-07-10T11:16:13;9.90;;;2.75;;
27572;SDS011;15009;53.082;8.768;2022-07-10T11:19:18;9.13;;;2.50;;
27572;SDS011;15009;53.082;8.768;2022-07-10T11:29:03;13.93;;;4.03;;
27572;SDS011;15009;53.082;8.768;2022-07-10T11:32:05;11.63;;;4.45;;
27572;SDS011;15009;53.082;8.768;2022-07-10T11:35:11;11.52;;;2.83;;
27572;SDS011;15009;53.082;8.768;2022-07-10T11:38:12;9.55;;;2.83;;
27572;SDS011;15009;53.082;8.768;2022-07-10T11:41:19;8.27;;;2.10;;
27572;SDS011;15009;53.082;8.768;2022-07-10T11:44:22;18.40;;;4.65;;
27572;SDS011;15009;53.082;8.768;2022-07-10T11:47:23;176.68;;;87.18;;
27572;SDS011;15009;53.082;8.768;2022-07-10T11:50:24;114.38;;;46.72;;
27572;SDS011;15009;53.082;8.768;2022-07-10T11:53:25;94.53;;;43.38;;
27572;SDS011;15009;53.082;8.768;2022-07-10T11:56:28;28.80;;;11.93;;
27572;SDS011;15009;53.082;8.768;2022-07-10T11:59:32;38.97;;;16.95;;
27572;SDS011;15009;53.082;8.768;2022-07-10T12:02:33;19.73;;;6.53;;
27572;SDS011;15009;53.082;8.768;2022-07-10T12:05:34;13.75;;;3.22;;
27572;SDS011;15009;53.082;8.768;2022-07-10T12:08:46;12.40;;;3.40;;
27572;SDS011;15009;53.082;8.768;2022-07-10T12:15:04;16.63;;;3.22;;
27572;SDS011;15009;53.082;8.768;2022-07-10T12:18:06;12.13;;;2.80;;
27572;SDS011;15009;53.082;8.768;2022-07-10T12:21:15;12.65;;;2.90;;
27572;SDS011;15009;53.082;8.768;2022-07-10T12:24:16;12.73;;;3.20;;
27572;SDS011;15009;53.082;8.768;2022-07-10T12:30:39;6.97;;;2.00;;
27572;SDS011;15009;53.082;8.768;2022-07-10T12:33:44;7.78;;;2.47;;
27572;SDS011;15009;53.082;8.768;2022-07-10T12:36:52;11.32;;;3.20;;
27572;SDS011;15009;53.082;8.768;2022-07-10T12:39:53;6.68;;;2.22;;
27572;SDS011;15009;53.082;8.768;2022-07-10T12:43:00;7.82;;;2.40;;
27572;SDS011;15009;53.082;8.768;2022-07-10T12:49:11;8.50;;;1.80;;
27572;SDS011;15009;53.082;8.768;2022-07-10T12:52:18;5.43;;;1.80;;
27572;SDS011;15009;53.082;8.768;2022-07-10T12:55:33;5.30;;;1.52;;
27572;SDS011;15009;53.082;8.768;2022-07-10T12:58:42;6.63;;;2.13;;
27572;SDS011;15009;53.082;8.768;2022-07-10T13:01:45;13.77;;;2.75;;
27572;SDS011;15009;53.082;8.768;2022-07-10T13:04:54;6.30;;;2.40;;
27572;SDS011;15009;53.082;8.768;2022-07-10T13:08:06;6.15;;;1.80;;
27572;SDS011;15009;53.082;8.768;2022-07-10T13:11:06;4.78;;;1.58;;
27572;SDS011;15009;53.082;8.768;2022-07-10T13:14:07;3.97;;;1.80;;
27572;SDS011;15009;53.082;8.768;2022-07-10T13:17:08;5.03;;;1.45;;
27572;SDS011;15009;53.082;8.768;2022-07-10T13:20:09;7.60;;;1.58;;
27572;SDS011;15009;53.082;8.768;2022-07-10T13:23:10;3.05;;;1.50;;
27572;SDS011;15009;53.082;8.768;2022-07-10T13:26:11;2.80;;;1.50;;
27572;SDS011;15009;53.082;8.768;2022-07-10T13:29:12;5.70;;;2.38;;
27572;SDS011;15009;53.082;8.768;2022-07-10T13:32:13;4.70;;;2.80;;
27572;SDS011;15009;53.082;8.768;2022-07-10T13:35:13;4.00;;;2.05;;
27572;SDS011;15009;53.082;8.768;2022-07-10T13:38:14;4.90;;;2.05;;
27572;SDS011;15009;53.082;8.768;2022-07-10T13:41:18;6.55;;;1.67;;
27572;SDS011;15009;53.082;8.768;2022-07-10T13:44:19;6.37;;;2.00;;
27572;SDS011;15009;53.082;8.768;2022-07-10T13:47:20;5.97;;;2.30;;
27572;SDS011;15009;53.082;8.768;2022-07-10T13:50:21;10.63;;;4.18;;
27572;SDS011;15009;53.082;8.768;2022-07-10T13:53:22;3.92;;;1.60;;
27572;SDS011;15009;53.082;8.768;2022-07-10T13:56:23;6.60;;;2.17;;
27572;SDS011;15009;53.082;8.768;2022-07-10T13:59:25;6.63;;;1.85;;
27572;SDS011;15009;53.082;8.768;2022-07-10T14:02:26;6.37;;;1.50;;
27572;SDS011;15009;53.082;8.768;2022-07-10T14:05:27;8.35;;;2.00;;
27572;SDS011;15009;53.082;8.768;2022-07-10T14:08:28;9.68;;;2.65;;
27572;SDS011;15009;53.082;8.768;2022-07-10T14:11:29;5.80;;;2.05;;
27572;SDS011;15009;53.082;8.768;2022-07-10T14:14:29;4.03;;;1.90;;
27572;SDS011;15009;53.082;8.768;2022-07-10T14:17:30;7.50;;;2.08;;
27572;SDS011;15009;53.082;8.768;2022-07-10T14:20:31;8.40;;;2.60;;
27572;SDS011;15009;53.082;8.768;2022-07-10T14:23:54;8.13;;;2.42;;
27572;SDS011;15009;53.082;8.768;2022-07-10T14:26:56;7.97;;;2.72;;
27572;SDS011;15009;53.082;8.768;2022-07-10T14:29:57;4.15;;;2.05;;
27572;SDS011;15009;53.082;8.768;2022-07-10T14:32:59;8.75;;;2.30;;
27572;SDS011;15009;53.082;8.768;2022-07-10T14:36:00;6.63;;;2.25;;
27572;SDS011;15009;53.082;8.768;2022-07-10T14:39:01;5.85;;;2.17;;
27572;SDS011;15009;53.082;8.768;2022-07-10T14:42:02;5.93;;;2.08;;
27572;SDS011;15009;53.082;8.768;2022-07-10T14:45:05;7.85;;;1.65;;
27572;SDS011;15009;53.082;8.768;2022-07-10T14:48:06;6.30;;;1.75;;
27572;SDS011;15009;53.082;8.768;2022-07-10T14:51:06;4.75;;;2.00;;
27572;SDS011;15009;53.082;8.768;2022-07-10T14:54:10;6.20;;;2.33;;
27572;SDS011;15009;53.082;8.768;2022-07-10T14:57:11;5.00;;;1.40;;
27572;SDS011;15009;53.082;8.768;2022-07-10T15:00:13;3.97;;;1.60;;
27572;SDS011;15009;53.082;8.768;2022-07-10T15:03:14;6.03;;;1.95;;
27572;SDS011;15009;53.082;8.768;2022-07-10T15:06:14;6.07;;;2.00;;
27572;SDS011;15009;53.082;8.768;2022-07-10T15:09:15;10.15;;;3.38;;
27572;SDS011;15009;53.082;8.768;2022-07-10T15:12:16;11.85;;;2.45;;
27572;SDS011;15009;53.082;8.768;2022-07-10T15:15:16;6.90;;;2.05;;
27572;SDS011;15009;53.082;8.768;2022-07-10T15:18:17;4.03;;;1.65;;
27572;SDS011;15009;53.082;8.768;2022-07-10T15:21:18;7.53;;;2.17;;
27572;SDS011;15009;53.082;8.768;2022-07-10T15:24:19;7.18;;;2.15;;
27572;SDS011;15009;53.082;8.768;2022-07-10T15:27:19;6.75;;;2.03;;
27572;SDS011;15009;53.082;8.768;2022-07-10T15:30:20;8.80;;;2.17;;
27572;SDS011;15009;53.082;8.768;2022-07-10T15:33:21;9.77;;;2.00;;
27572;SDS011;15009;53.082;8.768;2022-07-10T15:36:21;8.90;;;2.08;;
27572;SDS011;15009;53.082;8.768;2022-07-10T15:39:22;7.65;;;2.42;;
27572;SDS011;15009;53.082;8.768;2022-07-10T15:42:22;6.05;;;1.70;;
27572;SDS011;15009;53.082;8.768;2022-07-10T15:45:23;6.95;;;2.17;;
27572;SDS011;15009;53.082;8.768;2022-07-10T15:48:27;6.68;;;1.88;;
27572;SDS011;15009;53.082;8.768;2022-07-10T15:51:28;8.23;;;1.60;;
27572;SDS011;15009;53.082;8.768;2022-07-10T15:54:28;3.83;;;1.50;;
27572;SDS011;15009;53.082;8.768;2022-07-10T15:57:29;5.75;;;1.50;;
27572;SDS011;15009;53.082;8.768;2022-07-10T16:00:30;4.32;;;1.42;;
27572;SDS011;15009;53.082;8.768;2022-07-10T16:03:30;6.38;;;2.17;;
27572;SDS011;15009;53.082;8.768;2022-07-10T16:06:31;7.28;;;1.80;;
27572;SDS011;15009;53.082;8.768;2022-07-10T16:09:31;6.50;;;1.77;;
27572;SDS011;15009;53.082;8.768;2022-07-10T16:12:32;6.70;;;1.77;;
27572;SDS011;15009;53.082;8.768;2022-07-10T16:15:33;7.07;;;1.60;;
27572;SDS011;15009;53.082;8.768;2022-07-10T16:18:33;7.32;;;1.55;;
27572;SDS011;15009;53.082;8.768;2022-07-10T16:21:34;9.45;;;2.58;;
27572;SDS011;15009;53.082;8.768;2022-07-10T16:24:35;5.18;;;1.92;;
27572;SDS011;15009;53.082;8.768;2022-07-10T16:27:55;9.60;;;2.25;;
27572;SDS011;15009;53.082;8.768;2022-07-10T16:30:56;6.28;;;1.60;;
27572;SDS011;15009;53.082;8.768;2022-07-10T16:33:59;6.80;;;1.90;;
27572;SDS011;15009;53.082;8.768;2022-07-10T16:37:03;7.70;;;1.88;;
27572;SDS011;15009;53.082;8.768;2022-07-10T16:40:04;7.63;;;2.13;;
27572;SDS011;15009;53.082;8.768;2022-07-10T16:43:05;9.85;;;2.30;;
27572;SDS011;15009;53.082;8.768;2022-07-10T16:46:05;5.38;;;1.67;;
27572;SDS011;15009;53.082;8.768;2022-07-10T16:49:06;7.63;;;3.08;;
27572;SDS011;15009;53.082;8.768;2022-07-10T16:52:07;18.90;;;10.00;;
27572;SDS011;15009;53.082;8.768;2022-07-10T16:55:09;8.45;;;1.95;;
27572;SDS011;15009;53.082;8.768;2022-07-10T16:58:10;7.40;;;2.00;;
27572;SDS011;15009;53.082;8.768;2022-07-10T17:01:12;5.45;;;1.20;;
27572;SDS011;15009;53.082;8.768;2022-07-10T17:07:13;4.65;;;1.60;;
27572;SDS011;15009;53.082;8.768;2022-07-10T17:10:14;10.15;;;1.70;;
27572;SDS011;15009;53.082;8.768;2022-07-10T17:13:15;3.90;;;1.65;;
27572;SDS011;15009;53.082;8.768;2022-07-10T17:16:15;7.15;;;3.55;;
27572;SDS011;15009;53.082;8.768;2022-07-10T17:19:16;3.88;;;1.40;;
27572;SDS011;15009;53.082;8.768;2022-07-10T17:22:17;3.13;;;1.20;;
27572;SDS011;15009;53.082;8.768;2022-07-10T17:25:19;4.57;;;1.10;;
27572;SDS011;15009;53.082;8.768;2022-07-10T17:28:20;2.50;;;1.33;;
27572;SDS011;15009;53.082;8.768;2022-07-10T17:31:21;3.65;;;1.25;;
27572;SDS011;15009;53.082;8.768;2022-07-10T17:34:22;4.47;;;1.10;;
27572;SDS011;15009;53.082;8.768;2022-07-10T17:37:23;7.97;;;1.90;;
27572;SDS011;15009;53.082;8.768;2022-07-10T17:40:23;39.67;;;8.27;;
27572;SDS011;15009;53.082;8.768;2022-07-10T17:43:25;17.45;;;4.05;;
27572;SDS011;15009;53.082;8.768;2022-07-10T17:46:26;29.52;;;6.95;;
27572;SDS011;15009;53.082;8.768;2022-07-10T17:49:27;3.42;;;1.67;;
27572;SDS011;15009;53.082;8.768;2022-07-10T17:52:30;8.63;;;1.48;;
27572;SDS011;15009;53.082;8.768;2022-07-10T17:55:31;10.73;;;2.58;;
27572;SDS011;15009;53.082;8.768;2022-07-10T17:58:32;4.00;;;1.20;;
27572;SDS011;15009;53.082;8.768;2022-07-10T18:01:32;6.03;;;1.70;;
27572;SDS011;15009;53.082;8.768;2022-07-10T18:04:33;1.98;;;1.17;;
27572;SDS011;15009;53.082;8.768;2022-07-10T18:07:34;5.70;;;1.40;;
27572;SDS011;15009;53.082;8.768;2022-07-10T18:10:35;3.45;;;1.20;;
27572;SDS011;15009;53.082;8.768;2022-07-10T18:13:36;4.40;;;1.20;;
27572;SDS011;15009;53.082;8.768;2022-07-10T18:16:37;5.88;;;1.30;;
27572;SDS011;15009;53.082;8.768;2022-07-10T18:19:37;7.40;;;1.38;;
27572;SDS011;15009;53.082;8.768;2022-07-10T18:22:38;4.22;;;1.30;;
27572;SDS011;15009;53.082;8.768;2022-07-10T18:25:38;5.05;;;1.30;;
27572;SDS011;15009;53.082;8.768;2022-07-10T18:28:39;7.25;;;3.08;;
27572;SDS011;15009;53.082;8.768;2022-07-10T18:31:40;8.30;;;4.72;;
27572;SDS011;15009;53.082;8.768;2022-07-10T18:34:41;5.82;;;2.58;;
27572;SDS011;15009;53.082;8.768;2022-07-10T18:37:42;4.57;;;1.50;;
27572;SDS011;15009;53.082;8.768;2022-07-10T18:40:42;7.57;;;2.45;;